createdAt,value
2017-09-17T00:01:02.098Z,13.30
2017-09-17T00:03:29.588Z,13.30
2017-09-17T00:05:57.064Z,13.30
2017-09-17T00:08:24.560Z,13.30
2017-09-17T00:10:52.144Z,13.30
2017-09-17T00:13:19.643Z,13.20
2017-09-17T00:15:47.129Z,13.20
2017-09-17T00:18:14.627Z,13.20
2017-09-17T00:20:42.103Z,13.20
2017-09-17T00:23:09.623Z,13.20
2017-09-17T00:25:37.107Z,13.20
2017-09-17T00:28:05.371Z,13.10
2017-09-17T00:30:32.856Z,13.00
2017-09-17T00:33:00.378Z,13.10
2017-09-17T00:35:27.855Z,13.10
2017-09-17T00:37:56.118Z,13.10
2017-09-17T00:40:23.591Z,13.10
2017-09-17T00:42:51.095Z,13.10
2017-09-17T00:45:19.344Z,13.10
2017-09-17T00:47:46.831Z,13.10
2017-09-17T00:50:15.081Z,13.10
2017-09-17T00:52:42.565Z,13.00
2017-09-17T00:55:10.827Z,13.00
2017-09-17T00:57:39.073Z,13.00
2017-09-17T01:00:07.335Z,12.90
2017-09-17T01:02:34.812Z,12.90
2017-09-17T01:05:02.311Z,12.80
2017-09-17T01:07:29.811Z,12.80
2017-09-17T01:09:57.306Z,12.80
2017-09-17T01:12:25.556Z,12.80
2017-09-17T01:14:53.058Z,12.80
2017-09-17T01:17:21.310Z,12.80
2017-09-17T01:19:48.791Z,12.80
2017-09-17T01:22:16.287Z,12.80
2017-09-17T01:24:43.775Z,12.70
2017-09-17T01:27:11.268Z,12.70
2017-09-17T01:29:38.771Z,12.60
2017-09-17T01:32:06.269Z,12.60
2017-09-17T01:34:34.519Z,12.50
2017-09-17T01:37:02.011Z,12.50
2017-09-17T01:39:29.495Z,12.50
2017-09-17T01:41:56.991Z,12.40
2017-09-17T01:44:24.472Z,12.30
2017-09-17T01:46:52.740Z,12.10
2017-09-17T01:49:20.993Z,12.10
2017-09-17T01:51:48.468Z,12.00
2017-09-17T01:54:15.967Z,11.90
2017-09-17T01:56:43.448Z,11.90
2017-09-17T01:59:10.942Z,11.90
2017-09-17T02:01:39.364Z,11.80
2017-09-17T02:04:06.866Z,11.80
2017-09-17T02:06:34.350Z,11.70
2017-09-17T02:09:02.612Z,11.60
2017-09-17T02:11:30.096Z,11.60
2017-09-17T02:13:57.587Z,11.60
2017-09-17T02:16:25.095Z,11.60
2017-09-17T02:18:53.356Z,11.50
2017-09-17T02:21:20.843Z,11.50
2017-09-17T02:23:48.315Z,11.50
2017-09-17T02:26:15.807Z,11.50
2017-09-17T02:28:43.286Z,11.50
2017-09-17T02:31:10.781Z,11.50
2017-09-17T02:33:38.282Z,11.60
2017-09-17T02:36:05.780Z,11.60
2017-09-17T02:38:34.026Z,11.50
2017-09-17T02:41:01.517Z,11.50
2017-09-17T02:43:29.009Z,11.50
2017-09-17T02:45:56.505Z,11.50
2017-09-17T02:48:23.992Z,11.40
2017-09-17T02:50:51.484Z,11.40
2017-09-17T02:53:18.963Z,11.30
2017-09-17T02:55:46.466Z,11.30
2017-09-17T02:58:13.975Z,11.30
2017-09-17T03:00:41.457Z,11.40
2017-09-17T03:03:08.963Z,11.40
2017-09-17T03:05:36.434Z,11.50
2017-09-17T03:08:03.931Z,11.50
2017-09-17T03:10:32.178Z,11.50
2017-09-17T03:12:59.671Z,11.50
2017-09-17T03:15:27.915Z,11.60
2017-09-17T03:17:55.410Z,11.60
2017-09-17T03:20:23.679Z,11.60
2017-09-17T03:22:51.952Z,11.60
2017-09-17T03:25:19.965Z,11.60
2017-09-17T03:27:47.463Z,11.50
2017-09-17T03:30:14.948Z,11.50
2017-09-17T03:32:43.224Z,11.40
2017-09-17T03:35:10.713Z,11.40
2017-09-17T03:37:38.451Z,11.40
2017-09-17T03:40:05.999Z,11.30
2017-09-17T03:42:34.268Z,11.30
2017-09-17T03:45:02.547Z,11.20
2017-09-17T03:47:30.060Z,11.20
2017-09-17T03:49:57.564Z,11.20
2017-09-17T03:52:25.843Z,11.30
2017-09-17T03:54:53.351Z,11.30
2017-09-17T03:57:20.839Z,11.30
2017-09-17T03:59:48.331Z,11.30
2017-09-17T04:02:15.833Z,11.20
2017-09-17T04:04:43.358Z,11.10
2017-09-17T04:07:10.847Z,11.10
2017-09-17T04:09:38.355Z,11.10
2017-09-17T04:12:05.845Z,11.20
2017-09-17T04:14:33.358Z,11.30
2017-09-17T04:17:00.835Z,11.20
2017-09-17T04:19:28.327Z,11.10
2017-09-17T04:21:55.839Z,11.10
2017-09-17T04:24:23.339Z,11.10
2017-09-17T04:26:50.831Z,11.10
2017-09-17T04:29:18.316Z,11.10
2017-09-17T04:31:45.819Z,11.00
2017-09-17T04:34:13.315Z,11.00
2017-09-17T04:36:40.827Z,11.10
2017-09-17T04:39:08.323Z,11.10
2017-09-17T04:41:35.818Z,11.00
2017-09-17T04:44:03.303Z,10.90
2017-09-17T04:46:30.815Z,11.00
2017-09-17T04:48:59.079Z,11.00
2017-09-17T04:51:27.364Z,11.00
2017-09-17T04:53:54.858Z,10.90
2017-09-17T04:56:22.379Z,11.00
2017-09-17T04:58:49.880Z,11.10
2017-09-17T05:01:17.767Z,11.20
2017-09-17T05:03:45.268Z,11.10
2017-09-17T05:06:12.763Z,11.10
2017-09-17T05:08:40.275Z,11.10
2017-09-17T05:11:08.527Z,11.10
2017-09-17T05:13:36.181Z,11.10
2017-09-17T05:16:03.667Z,11.20
2017-09-17T05:18:31.208Z,11.20
2017-09-17T05:20:58.699Z,11.30
2017-09-17T05:23:26.210Z,11.30
2017-09-17T05:25:53.752Z,11.40
2017-09-17T05:28:21.243Z,11.40
2017-09-17T05:30:48.739Z,11.40
2017-09-17T05:33:16.352Z,11.40
2017-09-17T05:35:43.843Z,11.40
2017-09-17T05:38:12.107Z,11.40
2017-09-17T05:40:40.364Z,11.40
2017-09-17T05:43:07.853Z,11.40
2017-09-17T05:45:35.349Z,11.40
2017-09-17T05:48:02.859Z,11.40
2017-09-17T05:50:31.131Z,11.50
2017-09-17T05:52:59.400Z,11.50
2017-09-17T05:55:26.912Z,11.50
2017-09-17T05:57:54.407Z,11.50
2017-09-17T06:00:21.918Z,11.50
2017-09-17T06:02:49.407Z,11.60
2017-09-17T06:05:16.919Z,11.60
2017-09-17T06:07:44.407Z,11.60
2017-09-17T06:10:11.915Z,11.70
2017-09-17T06:12:39.419Z,11.70
2017-09-17T06:15:06.931Z,11.80
2017-09-17T06:17:34.429Z,11.70
2017-09-17T06:20:01.968Z,11.90
2017-09-17T06:22:29.457Z,11.90
2017-09-17T06:24:57.018Z,11.90
2017-09-17T06:27:24.519Z,11.90
2017-09-17T06:29:52.816Z,11.80
2017-09-17T06:32:20.344Z,11.80
2017-09-17T06:34:47.895Z,11.80
2017-09-17T06:37:15.437Z,11.80
2017-09-17T06:39:42.994Z,11.80
2017-09-17T06:42:10.507Z,11.90
2017-09-17T06:44:38.003Z,11.90
2017-09-17T06:47:05.508Z,11.90
2017-09-17T06:49:33.800Z,12.00
2017-09-17T06:52:01.327Z,12.00
2017-09-17T06:54:28.802Z,12.00
2017-09-17T06:56:57.175Z,12.20
2017-09-17T06:59:25.455Z,12.30
2017-09-17T07:01:52.968Z,12.30
2017-09-17T07:04:20.463Z,12.30
2017-09-17T07:06:47.977Z,12.30
2017-09-17T07:09:15.494Z,12.40
2017-09-17T07:11:42.997Z,12.60
2017-09-17T07:14:10.495Z,12.80
2017-09-17T07:16:38.771Z,13.00
2017-09-17T07:19:07.049Z,13.10
2017-09-17T07:21:35.330Z,13.20
2017-09-17T07:24:03.655Z,13.20
2017-09-17T07:26:31.169Z,13.20
2017-09-17T07:28:58.699Z,13.30
2017-09-17T07:31:26.200Z,13.50
2017-09-17T07:33:53.783Z,13.50
2017-09-17T07:36:21.272Z,13.60
2017-09-17T07:38:48.787Z,13.70
2017-09-17T07:41:16.279Z,13.80
2017-09-17T07:43:43.765Z,13.90
2017-09-17T07:46:12.051Z,14.20
2017-09-17T07:48:39.555Z,14.20
2017-09-17T07:51:07.062Z,14.30
2017-09-17T07:53:36.164Z,14.50
2017-09-17T07:56:04.434Z,14.60
2017-09-17T07:58:31.931Z,14.60
2017-09-17T08:00:59.453Z,14.80
2017-09-17T08:03:26.967Z,14.90
2017-09-17T08:05:54.479Z,15.00
2017-09-17T08:08:21.999Z,15.00
2017-09-17T08:10:49.512Z,15.10
2017-09-17T08:13:17.004Z,15.00
2017-09-17T08:15:44.491Z,15.10
2017-09-17T08:18:11.995Z,15.10
2017-09-17T08:20:39.560Z,15.10
2017-09-17T08:23:07.088Z,15.10
2017-09-17T08:25:34.603Z,15.10
2017-09-17T08:28:04.761Z,15.10
2017-09-17T08:30:32.266Z,15.10
2017-09-17T08:32:59.847Z,15.20
2017-09-17T08:35:27.541Z,15.30
2017-09-17T08:37:55.165Z,15.40
2017-09-17T08:40:22.768Z,15.50
2017-09-17T08:42:50.280Z,15.60
2017-09-17T08:45:17.787Z,15.70
2017-09-17T08:47:45.291Z,15.80
2017-09-17T08:50:12.787Z,15.80
2017-09-17T08:52:40.307Z,15.90
2017-09-17T08:55:07.800Z,16.00
2017-09-17T08:57:35.311Z,16.00
2017-09-17T09:00:02.787Z,16.10
2017-09-17T09:02:30.309Z,16.20
2017-09-17T09:04:57.783Z,16.20
2017-09-17T09:07:25.276Z,16.30
2017-09-17T09:09:53.533Z,16.50
2017-09-17T09:12:21.026Z,16.50
2017-09-17T09:14:49.288Z,16.60
2017-09-17T09:17:17.565Z,16.60
2017-09-17T09:19:45.102Z,16.60
2017-09-17T09:22:12.604Z,16.70
2017-09-17T09:24:40.204Z,16.70
2017-09-17T09:27:07.712Z,16.80
2017-09-17T09:29:35.231Z,16.90
2017-09-17T09:32:02.760Z,17.00
2017-09-17T09:34:30.333Z,17.20
2017-09-17T09:36:57.821Z,17.20
2017-09-17T09:39:26.108Z,17.50
2017-09-17T09:41:53.605Z,17.50
2017-09-17T09:44:21.088Z,17.60
2017-09-17T09:46:48.686Z,17.70
2017-09-17T09:49:16.190Z,17.70
2017-09-17T09:51:43.704Z,17.70
2017-09-17T09:54:11.216Z,17.80
2017-09-17T09:56:38.737Z,17.80
2017-09-17T09:59:06.675Z,17.90
2017-09-17T10:01:34.201Z,18.00
2017-09-17T10:04:01.711Z,18.00
2017-09-17T10:06:29.237Z,18.00
2017-09-17T10:08:56.747Z,18.00
2017-09-17T10:11:24.247Z,17.80
2017-09-17T10:13:51.739Z,17.60
2017-09-17T10:16:19.258Z,17.50
2017-09-17T10:18:46.753Z,17.30
2017-09-17T10:21:15.006Z,17.10
2017-09-17T10:23:42.503Z,17.10
2017-09-17T10:26:09.991Z,17.10
2017-09-17T10:28:37.516Z,17.10
2017-09-17T10:31:05.024Z,17.10
2017-09-17T10:33:32.587Z,17.10
2017-09-17T10:36:00.081Z,17.10
2017-09-17T10:38:27.595Z,17.10
2017-09-17T10:40:55.088Z,17.00
2017-09-17T10:43:23.373Z,16.90
2017-09-17T10:45:50.896Z,16.90
2017-09-17T10:48:18.625Z,17.00
2017-09-17T10:50:46.125Z,17.00
2017-09-17T10:53:13.643Z,17.00
2017-09-17T10:55:41.177Z,17.00
2017-09-17T10:58:08.686Z,17.00
2017-09-17T11:00:36.200Z,17.00
2017-09-17T11:03:03.734Z,17.00
2017-09-17T11:05:31.985Z,17.00
2017-09-17T11:07:59.475Z,17.10
2017-09-17T11:10:26.991Z,17.00
2017-09-17T11:12:54.484Z,17.10
2017-09-17T11:15:21.992Z,17.10
2017-09-17T11:17:49.492Z,17.10
2017-09-17T11:20:17.785Z,17.30
2017-09-17T11:22:45.276Z,17.30
2017-09-17T11:25:12.796Z,17.40
2017-09-17T11:27:40.291Z,17.60
2017-09-17T11:30:07.796Z,17.70
2017-09-17T11:32:35.293Z,17.80
2017-09-17T11:35:02.801Z,17.90
2017-09-17T11:37:30.321Z,18.00
2017-09-17T11:39:57.855Z,18.10
2017-09-17T11:42:25.343Z,18.20
2017-09-17T11:44:52.855Z,18.20
2017-09-17T11:47:21.127Z,18.10
2017-09-17T11:49:49.395Z,18.10
2017-09-17T11:52:16.906Z,18.10
2017-09-17T11:54:44.425Z,18.10
2017-09-17T11:57:11.994Z,18.00
2017-09-17T11:59:39.484Z,17.90
2017-09-17T12:02:06.995Z,17.90
2017-09-17T12:04:35.272Z,17.80
2017-09-17T12:07:02.787Z,17.80
2017-09-17T12:09:30.301Z,17.70
2017-09-17T12:11:57.827Z,17.60
2017-09-17T12:14:25.340Z,17.50
2017-09-17T12:16:52.863Z,17.40
2017-09-17T12:19:20.364Z,17.20
2017-09-17T12:21:47.851Z,17.00
2017-09-17T12:24:15.362Z,16.90
2017-09-17T12:26:49.935Z,16.90
2017-09-17T12:29:17.831Z,16.80
2017-09-17T12:31:46.098Z,16.60
2017-09-17T12:34:13.679Z,16.60
2017-09-17T12:36:41.524Z,16.40
2017-09-17T12:39:09.122Z,16.30
2017-09-17T12:41:36.611Z,16.30
2017-09-17T12:44:04.182Z,16.20
2017-09-17T12:46:32.187Z,16.20
2017-09-17T12:48:59.721Z,16.10
2017-09-17T12:51:27.211Z,16.00
2017-09-17T12:53:54.729Z,16.00
2017-09-17T12:56:22.224Z,16.00
2017-09-17T12:58:50.097Z,16.00
2017-09-17T13:01:17.599Z,16.00
2017-09-17T13:03:45.148Z,16.00
2017-09-17T13:06:12.649Z,16.00
2017-09-17T13:08:40.163Z,15.90
2017-09-17T13:11:07.664Z,15.90
2017-09-17T13:13:35.930Z,15.90
2017-09-17T13:16:03.418Z,15.80
2017-09-17T13:18:30.964Z,15.80
2017-09-17T13:20:58.500Z,15.80
2017-09-17T13:23:25.980Z,15.70
2017-09-17T13:25:53.517Z,15.60
2017-09-17T13:28:21.008Z,15.40
2017-09-17T13:30:48.532Z,15.30
2017-09-17T13:35:38.130Z,15.10
2017-09-17T13:38:06.392Z,14.80
2017-09-17T13:40:33.888Z,14.80
2017-09-17T13:43:01.389Z,14.70
2017-09-17T13:45:28.922Z,14.60
2017-09-17T13:47:56.513Z,14.60
2017-09-17T13:50:24.003Z,14.50
2017-09-17T13:52:51.543Z,14.50
2017-09-17T13:55:19.084Z,14.40
2017-09-17T13:57:46.588Z,14.40
2017-09-17T14:00:14.925Z,14.30
2017-09-17T14:02:44.874Z,14.30
2017-09-17T14:08:27.351Z,14.20
2017-09-17T14:10:55.284Z,14.20
2017-09-17T14:13:22.801Z,14.30
2017-09-17T14:15:50.303Z,14.30
2017-09-17T14:18:17.858Z,14.30
2017-09-17T14:20:45.679Z,14.30
2017-09-17T14:23:13.183Z,14.20
2017-09-17T14:25:40.702Z,14.30
2017-09-17T14:28:08.205Z,14.30
2017-09-17T14:30:35.743Z,14.30
2017-09-17T14:33:03.264Z,14.40
2017-09-17T14:35:30.774Z,14.50
2017-09-17T14:37:58.271Z,14.50
2017-09-17T14:40:25.791Z,14.50
2017-09-17T14:42:53.280Z,14.40
2017-09-17T14:45:20.811Z,14.50
2017-09-17T14:47:48.315Z,14.50
2017-09-17T14:50:15.824Z,14.60
2017-09-17T14:52:43.322Z,14.60
2017-09-17T14:55:10.852Z,14.60
2017-09-17T14:57:38.377Z,14.70
2017-09-17T15:00:05.884Z,14.80
2017-09-17T15:02:33.402Z,14.80
2017-09-17T15:05:00.912Z,14.80
2017-09-17T15:07:28.618Z,14.80
2017-09-17T15:09:56.135Z,14.90
2017-09-17T15:12:23.652Z,15.00
2017-09-17T15:14:51.172Z,15.00
2017-09-17T15:17:19.042Z,15.00
2017-09-17T15:19:46.736Z,15.00
2017-09-17T15:22:14.261Z,15.00
2017-09-17T15:24:41.799Z,15.00
2017-09-17T15:27:09.305Z,15.00
2017-09-17T15:29:37.209Z,15.00
2017-09-17T15:32:04.736Z,15.00
2017-09-17T15:34:32.263Z,15.00
2017-09-17T15:36:59.819Z,15.00
2017-09-17T15:39:27.353Z,14.90
2017-09-17T15:41:54.864Z,14.80
2017-09-17T15:44:22.422Z,14.80
2017-09-17T15:46:49.996Z,14.80
2017-09-17T15:49:17.595Z,14.80
2017-09-17T15:51:45.095Z,14.80
2017-09-17T15:54:12.629Z,14.80
2017-09-17T15:56:40.361Z,14.80
2017-09-17T15:59:07.878Z,14.80
2017-09-17T16:01:35.391Z,14.70
2017-09-17T16:04:02.890Z,14.70
2017-09-17T16:06:30.392Z,14.70
2017-09-17T16:08:58.009Z,14.80
2017-09-17T16:11:25.523Z,14.80
2017-09-17T16:13:53.030Z,14.80
2017-09-17T16:16:20.544Z,14.80
2017-09-17T16:18:48.050Z,14.80
2017-09-17T16:21:15.607Z,14.80
2017-09-17T16:23:43.135Z,14.80
2017-09-17T16:26:10.628Z,14.80
2017-09-17T16:28:38.151Z,14.80
2017-09-17T16:31:05.641Z,14.80
2017-09-17T16:33:33.144Z,14.80
2017-09-17T16:36:00.708Z,14.80
2017-09-17T16:38:28.204Z,14.70
2017-09-17T16:40:56.486Z,14.60
2017-09-17T16:43:23.988Z,14.60
2017-09-17T16:45:51.504Z,14.60
2017-09-17T16:48:19.022Z,14.60
2017-09-17T16:50:46.586Z,14.60
2017-09-17T16:53:14.067Z,14.50
2017-09-17T16:55:41.602Z,14.60
2017-09-17T16:58:09.094Z,14.50
2017-09-17T17:00:37.437Z,14.50
2017-09-17T17:03:04.980Z,14.50
2017-09-17T17:05:32.537Z,14.50
2017-09-17T17:08:00.024Z,14.50
2017-09-17T17:10:27.511Z,14.40
2017-09-17T17:12:55.011Z,14.30
2017-09-17T17:15:22.515Z,14.30
2017-09-17T17:17:50.062Z,14.20
2017-09-17T17:20:17.561Z,14.20
2017-09-17T17:22:45.059Z,14.10
2017-09-17T17:25:12.559Z,14.10
2017-09-17T17:27:40.103Z,14.10
2017-09-17T17:30:07.631Z,14.10
2017-09-17T17:32:35.171Z,14.00
2017-09-17T17:35:02.673Z,14.00
2017-09-17T17:37:30.251Z,14.00
2017-09-17T17:39:57.806Z,13.90
2017-09-17T17:42:25.363Z,13.90
2017-09-17T17:44:52.883Z,13.90
2017-09-17T17:47:20.376Z,13.80
2017-09-17T17:49:47.891Z,13.80
2017-09-17T17:52:15.396Z,13.80
2017-09-17T17:54:42.935Z,13.80
2017-09-17T17:57:10.433Z,13.70
2017-09-17T17:59:37.955Z,13.70
2017-09-17T18:02:06.249Z,13.40
2017-09-17T18:04:33.755Z,13.40
2017-09-17T18:07:01.257Z,13.40
2017-09-17T18:09:28.862Z,13.40
2017-09-17T18:11:56.510Z,13.40
2017-09-17T18:14:24.031Z,13.30
2017-09-17T18:16:51.613Z,13.30
2017-09-17T18:19:19.147Z,13.20
2017-09-17T18:21:47.441Z,13.20
2017-09-17T18:24:15.717Z,13.10
2017-09-17T18:26:43.255Z,13.10
2017-09-17T18:29:11.532Z,13.00
2017-09-17T18:31:39.061Z,13.00
2017-09-17T18:34:06.555Z,12.90
2017-09-17T18:36:34.878Z,12.80
2017-09-17T18:39:02.463Z,12.80
2017-09-17T18:41:30.129Z,12.80
2017-09-17T18:43:57.648Z,12.80
2017-09-17T18:46:25.244Z,12.90
2017-09-17T18:48:52.812Z,12.80
2017-09-17T18:51:20.584Z,12.80
2017-09-17T18:53:48.360Z,12.80
2017-09-17T18:56:16.701Z,13.00
2017-09-17T18:58:44.213Z,12.90
2017-09-17T19:01:12.373Z,13.00
2017-09-17T19:03:39.883Z,13.10
2017-09-17T19:06:07.387Z,13.10
2017-09-17T19:08:35.027Z,13.10
2017-09-17T19:11:02.513Z,13.10
2017-09-17T19:13:30.777Z,13.10
2017-09-17T19:15:58.429Z,13.10
2017-09-17T19:18:26.039Z,13.10
2017-09-17T19:20:53.566Z,13.20
2017-09-17T19:23:21.127Z,13.20
2017-09-17T19:25:48.669Z,13.20
2017-09-17T19:28:16.258Z,13.20
2017-09-17T19:30:43.802Z,13.10
2017-09-17T19:33:11.331Z,13.10
2017-09-17T19:35:39.608Z,13.00
2017-09-17T19:38:07.154Z,13.00
2017-09-17T19:40:34.966Z,13.10
2017-09-17T19:43:02.570Z,13.10
2017-09-17T19:45:30.123Z,13.10
2017-09-17T19:47:57.627Z,13.20
2017-09-17T19:50:25.194Z,13.20
2017-09-17T19:52:52.795Z,13.20
2017-09-17T19:55:20.314Z,13.20
2017-09-17T19:57:48.598Z,13.20
2017-09-17T20:00:16.110Z,13.20
2017-09-17T20:02:43.611Z,13.20
2017-09-17T20:05:11.133Z,13.20
2017-09-17T20:07:38.667Z,13.20
2017-09-17T20:10:06.243Z,13.10
2017-09-17T20:12:33.821Z,13.20
2017-09-17T20:15:02.160Z,13.00
2017-09-17T20:17:29.712Z,13.00
2017-09-17T20:19:57.388Z,13.00
2017-09-17T20:22:24.927Z,12.90
2017-09-17T20:24:52.433Z,12.80
2017-09-17T20:27:19.940Z,12.80
2017-09-17T20:29:47.454Z,12.70
2017-09-17T20:32:14.971Z,12.70
2017-09-17T20:34:42.461Z,12.60
2017-09-17T20:37:09.968Z,12.60
2017-09-17T20:39:37.904Z,12.50
2017-09-17T20:42:05.503Z,12.40
2017-09-17T20:44:33.016Z,12.30
2017-09-17T20:47:00.595Z,12.20
2017-09-17T20:49:28.121Z,12.10
2017-09-17T20:51:55.671Z,12.10
2017-09-17T20:54:23.159Z,12.00
2017-09-17T20:56:50.652Z,12.00
2017-09-17T20:59:18.163Z,12.00
2017-09-17T21:01:45.640Z,11.80
2017-09-17T21:04:13.139Z,11.80
2017-09-17T21:06:40.632Z,11.80
2017-09-17T21:09:08.158Z,11.80
2017-09-17T21:11:35.675Z,11.70
2017-09-17T21:14:03.179Z,11.40
2017-09-17T21:16:30.678Z,11.40
2017-09-17T21:18:59.016Z,11.40
2017-09-17T21:21:26.523Z,11.40
2017-09-17T21:23:54.067Z,11.50
2017-09-17T21:26:21.589Z,11.50
2017-09-17T21:28:49.109Z,11.40
2017-09-17T21:31:16.594Z,11.50
2017-09-17T21:33:44.080Z,11.50
2017-09-17T21:36:11.570Z,11.60
2017-09-17T21:38:39.849Z,11.60
2017-09-17T21:41:07.371Z,11.60
2017-09-17T21:43:34.874Z,11.60
2017-09-17T21:46:02.393Z,11.80
2017-09-17T21:48:29.875Z,11.90
2017-09-17T21:50:57.381Z,11.80
2017-09-17T21:53:24.884Z,11.90
2017-09-17T21:55:53.174Z,12.00
2017-09-17T21:58:20.872Z,12.00
2017-09-17T22:00:48.371Z,12.00
2017-09-17T22:03:15.852Z,12.10
2017-09-17T22:05:43.400Z,12.20
2017-09-17T22:08:11.667Z,12.30
2017-09-17T22:10:39.947Z,12.30
2017-09-17T22:13:07.456Z,12.30
2017-09-17T22:15:34.931Z,12.30
2017-09-17T22:18:02.437Z,12.20
2017-09-17T22:20:29.922Z,12.20
2017-09-17T22:22:57.419Z,12.20
2017-09-17T22:25:24.915Z,12.20
2017-09-17T22:27:52.436Z,12.30
2017-09-17T22:30:19.928Z,12.20
2017-09-17T22:32:47.418Z,12.20
2017-09-17T22:35:14.908Z,12.20
2017-09-17T22:37:42.395Z,12.20
2017-09-17T22:40:09.890Z,12.10
2017-09-17T22:42:37.396Z,12.10
2017-09-17T22:45:05.673Z,11.90
2017-09-17T22:47:33.227Z,11.90
2017-09-17T22:50:01.483Z,11.90
2017-09-17T22:52:29.086Z,11.90
2017-09-17T22:54:56.604Z,11.80
2017-09-17T22:57:24.107Z,11.80
2017-09-17T22:59:51.807Z,11.90
2017-09-17T23:02:19.300Z,12.00
2017-09-17T23:04:47.590Z,12.00
2017-09-17T23:07:15.863Z,12.10
2017-09-17T23:09:43.395Z,12.10
2017-09-17T23:12:10.984Z,12.10
2017-09-17T23:14:38.535Z,12.10
2017-09-17T23:17:06.791Z,12.00
2017-09-17T23:19:34.324Z,12.00
2017-09-17T23:22:01.832Z,12.00
2017-09-17T23:24:30.105Z,11.90
2017-09-17T23:26:58.359Z,11.90
2017-09-17T23:29:26.655Z,11.80
2017-09-17T23:31:54.934Z,11.80
2017-09-17T23:34:23.175Z,11.80
2017-09-17T23:36:50.666Z,11.80
2017-09-17T23:39:18.151Z,11.70
2017-09-17T23:41:45.633Z,11.80
2017-09-17T23:44:13.104Z,11.90
2017-09-17T23:46:40.596Z,11.90
2017-09-17T23:49:08.835Z,12.00
2017-09-17T23:51:36.319Z,12.10
2017-09-17T23:54:03.791Z,12.00
2017-09-17T23:56:31.275Z,12.00
2017-09-17T23:58:58.774Z,11.90
